Time;durP1;ratioP1;P1;durP2;ratioP2;P2;SDS_P1;SDS_P2;PMS_P1;PMS_P2;Temp;Humidity;BMP_temperature;BMP_pressure;BME280_temperature;BME280_humidity;BME280_pressure;Samples;Min_cycle;Max_cycle;Signal;HPM_P1;HPM_P2
2023/05/25 00:02:18;;;;;;;16.65;6.97;;;12.40;99.90;;;;;;5030205;28;20387;-71
2023/05/25 00:04:47;;;;;;;16.05;7.57;;;12.40;99.90;;;;;;5030329;28;20033;-70
2023/05/25 00:07:13;;;;;;;16.80;7.25;;;12.30;99.90;;;;;;5030360;28;20068;-69
2023/05/25 00:09:40;;;;;;;17.27;7.45;;;12.30;99.90;;;;;;5030248;28;20114;-70
2023/05/25 00:12:06;;;;;;;21.10;7.45;;;12.20;99.90;;;;;;5030584;28;20025;-71
2023/05/25 00:14:32;;;;;;;24.42;8.13;;;12.20;99.90;;;;;;5030195;28;20030;-69
2023/05/25 00:16:58;;;;;;;19.00;7.93;;;12.30;99.90;;;;;;5030248;28;20048;-69
2023/05/25 00:19:23;;;;;;;21.23;8.85;;;12.30;99.90;;;;;;5030377;28;20030;-69
2023/05/25 00:21:49;;;;;;;19.65;9.00;;;12.30;99.90;;;;;;5030183;28;20102;-70
2023/05/25 00:24:16;;;;;;;27.80;9.50;;;12.20;99.90;;;;;;5030485;28;20022;-69
2023/05/25 00:26:41;;;;;;;17.95;7.90;;;12.20;99.90;;;;;;5029891;28;20033;-70
2023/05/25 00:29:07;;;;;;;24.63;8.85;;;12.30;99.90;;;;;;5030000;28;20520;-69
2023/05/25 00:31:34;;;;;;;18.80;7.90;;;12.30;99.90;;;;;;5030363;28;20038;-69
2023/05/25 00:33:59;;;;;;;22.77;8.52;;;12.30;99.90;;;;;;5030075;28;20161;-69
2023/05/25 00:36:25;;;;;;;19.40;8.02;;;12.20;99.90;;;;;;5030083;28;20025;-68
2023/05/25 00:38:51;;;;;;;16.52;7.65;;;12.20;99.90;;;;;;5030459;28;20292;-70
2023/05/25 00:41:17;;;;;;;17.83;8.23;;;12.20;99.90;;;;;;5030044;28;20034;-70
2023/05/25 00:43:46;;;;;;;19.40;8.55;;;12.10;99.90;;;;;;5030023;28;20026;-69
2023/05/25 00:46:14;;;;;;;20.23;8.50;;;12.00;99.90;;;;;;5029956;28;20033;-69
2023/05/25 00:48:41;;;;;;;20.30;8.00;;;12.10;99.90;;;;;;5030226;28;20038;-70
2023/05/25 00:51:09;;;;;;;19.60;9.37;;;12.10;99.90;;;;;;5034353;28;20443;-70
2023/05/25 00:53:36;;;;;;;23.73;7.95;;;12.10;99.90;;;;;;5034011;28;20490;-69
2023/05/25 00:56:14;;;;;;;20.83;8.23;;;12.10;99.90;;;;;;5033811;28;20440;-71
2023/05/25 00:58:41;;;;;;;16.75;7.53;;;12.10;99.90;;;;;;5033972;28;20033;-70
2023/05/25 01:01:11;;;;;;;18.30;7.78;;;12.10;99.90;;;;;;5033746;28;20486;-69
2023/05/25 01:03:40;;;;;;;23.67;8.40;;;12.00;99.90;;;;;;5033634;28;20071;-70
2023/05/25 01:06:12;;;;;;;22.58;8.20;;;11.90;99.90;;;;;;5033984;28;20029;-71
2023/05/25 01:08:40;;;;;;;15.30;7.05;;;11.90;99.90;;;;;;5033452;28;20124;-70
2023/05/25 01:11:10;;;;;;;22.02;8.30;;;11.90;99.90;;;;;;5033523;28;20183;-70
2023/05/25 01:13:37;;;;;;;21.05;8.45;;;11.80;99.90;;;;;;5033504;28;20389;-70
2023/05/25 01:16:05;;;;;;;18.63;8.57;;;11.90;99.90;;;;;;5033610;28;20535;-70
2023/05/25 01:18:32;;;;;;;21.85;8.55;;;11.90;99.90;;;;;;5033348;28;20033;-70
2023/05/25 01:21:13;;;;;;;18.65;7.22;;;11.80;99.90;;;;;;5034191;28;20163;-69
2023/05/25 01:23:45;;;;;;;18.88;8.02;;;11.80;99.90;;;;;;5033192;28;20073;-69
2023/05/25 01:26:14;;;;;;;21.23;8.35;;;11.70;99.90;;;;;;5032262;28;20052;-71
2023/05/25 01:28:45;;;;;;;15.95;9.13;;;11.70;99.90;;;;;;5033003;28;20352;-70
2023/05/25 01:31:14;;;;;;;14.60;7.85;;;11.70;99.90;;;;;;5033524;28;20042;-71
2023/05/25 01:33:42;;;;;;;20.67;7.80;;;11.60;99.90;;;;;;5033095;28;20033;-70
2023/05/25 01:36:08;;;;;;;23.05;8.50;;;11.70;99.90;;;;;;5044242;28;20025;-69
2023/05/25 01:38:35;;;;;;;27.00;9.88;;;11.60;99.90;;;;;;5052966;28;20485;-70
2023/05/25 01:41:00;;;;;;;19.52;9.52;;;11.70;99.90;;;;;;5052904;28;20033;-70
2023/05/25 01:43:26;;;;;;;21.00;8.73;;;11.60;99.90;;;;;;5051692;28;20159;-69
2023/05/25 01:45:59;;;;;;;19.63;8.52;;;11.60;99.90;;;;;;5052823;28;20028;-69
2023/05/25 01:48:35;;;;;;;19.88;9.63;;;11.50;99.90;;;;;;5052622;28;20444;-69
2023/05/25 01:51:09;;;;;;;18.38;9.10;;;11.50;99.90;;;;;;5053078;28;20040;-69
2023/05/25 01:53:42;;;;;;;22.20;8.75;;;11.40;99.90;;;;;;5052649;28;20040;-68
2023/05/25 01:56:10;;;;;;;23.02;9.25;;;11.40;99.90;;;;;;5052639;28;20033;-69
2023/05/25 01:58:43;;;;;;;18.88;9.45;;;11.40;99.90;;;;;;5052647;28;20439;-69
2023/05/25 02:01:10;;;;;;;16.02;8.43;;;11.40;99.90;;;;;;5052302;28;20033;-68
2023/05/25 02:03:38;;;;;;;21.92;8.65;;;11.30;99.90;;;;;;5052608;28;20043;-68
2023/05/25 02:06:04;;;;;;;21.08;9.25;;;11.30;99.90;;;;;;5052260;28;20411;-69
2023/05/25 02:08:30;;;;;;;16.27;8.68;;;11.20;99.90;;;;;;5052326;28;20044;-70
2023/05/25 02:10:55;;;;;;;21.27;9.57;;;11.30;99.90;;;;;;5052294;28;20055;-69
2023/05/25 02:13:21;;;;;;;26.83;10.10;;;11.30;99.90;;;;;;5052593;28;20033;-69
2023/05/25 02:15:46;;;;;;;22.13;9.52;;;11.30;99.90;;;;;;5052540;28;20083;-69
2023/05/25 02:18:12;;;;;;;18.08;9.05;;;11.40;99.90;;;;;;5052886;28;20031;-71
2023/05/25 02:20:38;;;;;;;20.15;10.15;;;11.30;99.90;;;;;;5052384;28;20029;-68
2023/05/25 02:23:04;;;;;;;21.80;9.68;;;11.20;99.90;;;;;;5052168;28;20037;-69
2023/05/25 02:25:30;;;;;;;21.95;9.93;;;11.30;99.90;;;;;;5052099;28;20486;-69
2023/05/25 02:27:56;;;;;;;30.08;11.32;;;11.30;99.90;;;;;;5052076;28;20045;-69
2023/05/25 02:30:21;;;;;;;26.15;11.48;;;11.30;99.90;;;;;;5052352;28;20355;-70
2023/05/25 02:32:47;;;;;;;28.67;11.48;;;11.30;99.90;;;;;;5052347;28;20074;-70
2023/05/25 02:35:12;;;;;;;22.55;11.02;;;11.30;99.90;;;;;;5052025;28;20036;-70
2023/05/25 02:37:38;;;;;;;26.55;11.45;;;11.40;99.90;;;;;;5051914;28;20032;-69
2023/05/25 02:40:05;;;;;;;24.75;11.57;;;11.40;99.90;;;;;;5051954;28;20408;-69
2023/05/25 02:42:30;;;;;;;28.50;12.48;;;11.40;99.90;;;;;;5051796;28;20025;-68
2023/05/25 02:44:56;;;;;;;26.38;11.90;;;11.50;99.90;;;;;;5052492;28;20501;-69
2023/05/25 02:47:21;;;;;;;21.80;11.75;;;11.50;99.90;;;;;;5051674;28;20063;-69
2023/05/25 02:49:47;;;;;;;19.55;10.45;;;11.60;99.90;;;;;;5051794;28;20491;-69
2023/05/25 02:52:13;;;;;;;28.10;12.20;;;11.60;99.90;;;;;;5051823;28;20463;-69
2023/05/25 02:54:38;;;;;;;25.05;12.05;;;11.60;99.90;;;;;;5051683;28;20093;-70
2023/05/25 02:57:05;;;;;;;28.48;12.13;;;11.60;99.90;;;;;;5052158;28;20470;-69
2023/05/25 02:59:30;;;;;;;23.23;12.43;;;11.70;99.90;;;;;;5051644;28;20191;-69
2023/05/25 03:01:57;;;;;;;24.70;12.45;;;11.80;99.90;;;;;;5050464;28;20033;-69
2023/05/25 03:04:23;;;;;;;26.43;12.40;;;11.70;99.90;;;;;;5050551;28;20443;-68
2023/05/25 03:06:49;;;;;;;28.25;12.73;;;11.70;99.90;;;;;;5052016;28;20078;-69
2023/05/25 03:09:15;;;;;;;33.00;12.45;;;11.90;99.90;;;;;;5050613;28;20440;-70
2023/05/25 03:11:40;;;;;;;31.73;13.20;;;11.90;99.90;;;;;;5050548;28;20470;-69
2023/05/25 03:14:06;;;;;;;26.67;11.48;;;11.90;99.90;;;;;;5051293;28;20037;-69
2023/05/25 03:16:34;;;;;;;25.83;11.85;;;11.90;99.90;;;;;;5051187;28;20036;-69
2023/05/25 03:19:01;;;;;;;25.20;11.73;;;12.00;99.90;;;;;;5051204;28;20033;-70
2023/05/25 03:21:27;;;;;;;21.65;10.63;;;12.10;99.90;;;;;;5051086;28;20029;-69
2023/05/25 03:23:53;;;;;;;22.75;11.45;;;12.10;99.90;;;;;;5051357;28;20339;-69
2023/05/25 03:26:18;;;;;;;22.55;12.05;;;12.10;99.90;;;;;;5050962;28;20116;-69
2023/05/25 03:28:44;;;;;;;25.27;12.18;;;12.10;99.90;;;;;;5050787;28;20083;-69
2023/05/25 03:31:11;;;;;;;21.73;11.57;;;12.10;99.90;;;;;;5050995;28;20458;-69
2023/05/25 03:33:37;;;;;;;31.27;12.30;;;12.10;99.90;;;;;;5050761;28;25218;-68
2023/05/25 03:36:07;;;;;;;25.27;11.82;;;12.00;99.90;;;;;;5050111;28;20423;-69
2023/05/25 03:38:35;;;;;;;30.10;11.85;;;12.00;99.90;;;;;;5051107;28;20029;-70
2023/05/25 03:41:00;;;;;;;27.23;12.40;;;12.10;99.90;;;;;;5050793;28;20040;-69
2023/05/25 03:43:26;;;;;;;24.38;11.43;;;12.20;99.90;;;;;;5050832;28;20029;-69
2023/05/25 03:45:52;;;;;;;25.35;11.65;;;12.20;99.90;;;;;;5049731;28;20378;-69
2023/05/25 03:48:17;;;;;;;26.77;12.05;;;12.20;99.90;;;;;;5050691;28;20059;-68
2023/05/25 03:50:43;;;;;;;30.13;11.93;;;12.20;99.90;;;;;;5050896;28;20021;-69
2023/05/25 03:53:09;;;;;;;29.77;13.05;;;12.20;99.90;;;;;;5050392;28;20449;-69
2023/05/25 03:55:34;;;;;;;24.77;12.30;;;12.20;99.90;;;;;;5050352;28;20033;-70
2023/05/25 03:58:00;;;;;;;26.50;12.82;;;12.20;99.90;;;;;;5050538;28;20029;-70
2023/05/25 04:00:26;;;;;;;28.08;12.30;;;12.20;99.90;;;;;;5049408;28;20044;-70
2023/05/25 04:02:52;;;;;;;34.08;13.95;;;12.10;99.90;;;;;;5051089;28;20032;-69
2023/05/25 04:05:17;;;;;;;25.27;13.23;;;12.10;99.90;;;;;;5050418;28;20072;-69
2023/05/25 04:07:44;;;;;;;24.30;13.55;;;12.10;99.90;;;;;;5050238;28;20029;-69
2023/05/25 04:10:10;;;;;;;34.22;14.07;;;12.10;99.90;;;;;;5050263;28;20326;-71
2023/05/25 04:12:36;;;;;;;33.22;14.48;;;12.20;99.90;;;;;;5050111;28;20039;-69
2023/05/25 04:15:04;;;;;;;32.30;13.68;;;12.10;99.90;;;;;;5050829;28;20352;-70
2023/05/25 04:17:30;;;;;;;29.60;14.32;;;12.10;99.90;;;;;;5050381;28;20040;-69
2023/05/25 04:19:55;;;;;;;28.30;14.32;;;12.00;99.90;;;;;;5048984;28;20033;-68
2023/05/25 04:22:21;;;;;;;31.40;15.23;;;12.10;99.90;;;;;;5050089;28;20037;-70
2023/05/25 04:24:47;;;;;;;35.97;14.70;;;12.00;99.90;;;;;;5049751;28;20033;-69
2023/05/25 04:27:15;;;;;;;33.08;15.32;;;12.20;99.90;;;;;;5050171;28;20049;-71
2023/05/25 04:29:41;;;;;;;36.45;15.10;;;12.20;99.90;;;;;;5049932;28;20029;-69
2023/05/25 04:32:08;;;;;;;31.20;16.23;;;12.00;99.90;;;;;;5048800;28;20032;-69
2023/05/25 04:34:35;;;;;;;41.97;15.52;;;12.00;99.90;;;;;;5050045;28;20029;-69
2023/05/25 04:37:04;;;;;;;35.05;15.02;;;12.00;99.90;;;;;;5048907;28;20033;-69
2023/05/25 04:39:31;;;;;;;33.15;14.95;;;12.20;99.90;;;;;;5048644;28;20513;-70
2023/05/25 04:41:57;;;;;;;36.40;15.73;;;12.30;99.90;;;;;;5050238;28;20048;-68
2023/05/25 04:44:24;;;;;;;37.58;15.52;;;12.20;99.90;;;;;;5049823;28;20700;-69
2023/05/25 04:46:51;;;;;;;26.25;15.18;;;12.30;99.90;;;;;;5048759;28;20079;-69
2023/05/25 04:49:17;;;;;;;34.67;15.52;;;12.40;99.90;;;;;;5049826;28;20069;-69
2023/05/25 04:51:43;;;;;;;37.25;16.60;;;12.40;99.90;;;;;;5049928;28;20121;-68
2023/05/25 04:54:09;;;;;;;38.03;16.77;;;12.40;99.90;;;;;;5049149;28;20100;-69
2023/05/25 04:56:35;;;;;;;38.63;17.13;;;12.30;99.90;;;;;;5050124;28;20047;-70
2023/05/25 04:59:01;;;;;;;32.22;16.63;;;12.20;99.90;;;;;;5049674;28;20176;-69
2023/05/25 05:01:28;;;;;;;33.80;16.60;;;12.40;99.90;;;;;;5049446;28;20045;-69
2023/05/25 05:03:53;;;;;;;36.05;17.52;;;12.40;99.90;;;;;;5048476;28;20266;-70
2023/05/25 05:06:20;;;;;;;36.03;18.05;;;12.50;99.90;;;;;;5050589;28;20036;-71
2023/05/25 05:08:46;;;;;;;34.05;17.40;;;12.50;99.90;;;;;;5050363;28;20112;-69
2023/05/25 05:11:11;;;;;;;41.35;16.98;;;12.50;99.90;;;;;;5049786;28;20147;-70
2023/05/25 05:13:37;;;;;;;34.47;18.73;;;12.60;99.90;;;;;;5049712;28;20038;-70
2023/05/25 05:16:03;;;;;;;37.67;18.50;;;12.60;99.90;;;;;;5048596;28;20037;-69
2023/05/25 05:18:28;;;;;;;36.45;18.02;;;12.50;99.90;;;;;;5049810;28;20028;-70
2023/05/25 05:20:54;;;;;;;38.20;19.92;;;12.60;99.90;;;;;;5050214;28;20029;-69
2023/05/25 05:23:20;;;;;;;48.25;20.30;;;12.60;99.90;;;;;;5049465;28;20454;-69
2023/05/25 05:25:45;;;;;;;35.95;19.15;;;12.40;99.90;;;;;;5048270;28;20044;-70
2023/05/25 05:28:11;;;;;;;35.20;17.60;;;12.40;99.90;;;;;;5049045;28;20060;-70
2023/05/25 05:30:37;;;;;;;35.08;16.92;;;12.60;99.90;;;;;;5049548;28;20578;-70
2023/05/25 05:33:03;;;;;;;29.33;16.33;;;12.70;99.90;;;;;;5050249;28;20032;-70
2023/05/25 05:35:30;;;;;;;28.77;14.40;;;12.80;99.90;;;;;;5051067;28;20486;-70
2023/05/25 05:37:56;;;;;;;27.75;15.00;;;12.80;99.90;;;;;;5052972;28;20111;-69
2023/05/25 05:40:21;;;;;;;33.97;14.02;;;12.80;99.90;;;;;;5052911;28;20191;-70
2023/05/25 05:42:47;;;;;;;25.45;12.88;;;12.80;99.90;;;;;;5051808;28;20029;-71
2023/05/25 05:45:12;;;;;;;23.95;12.23;;;12.80;99.90;;;;;;5053533;28;20398;-70
2023/05/25 05:47:38;;;;;;;23.90;12.30;;;12.80;99.90;;;;;;5051603;28;20025;-69
2023/05/25 05:50:05;;;;;;;22.88;12.30;;;12.90;99.90;;;;;;5052911;28;20044;-72
2023/05/25 05:52:30;;;;;;;28.38;12.45;;;12.80;99.90;;;;;;5051548;28;20024;-69
2023/05/25 05:54:56;;;;;;;24.85;11.40;;;12.80;99.90;;;;;;5051261;28;20029;-68
2023/05/25 05:57:22;;;;;;;24.38;10.90;;;12.80;99.90;;;;;;5052988;28;20209;-69
2023/05/25 05:59:47;;;;;;;26.42;11.10;;;12.90;99.90;;;;;;5052937;28;20045;-68
2023/05/25 06:02:13;;;;;;;17.92;9.88;;;12.80;99.90;;;;;;5052548;28;20194;-70
2023/05/25 06:04:39;;;;;;;36.85;11.75;;;12.60;99.90;;;;;;5052334;28;20030;-70
2023/05/25 06:07:05;;;;;;;24.25;11.35;;;12.70;99.90;;;;;;5052305;28;20043;-71
2023/05/25 06:09:30;;;;;;;28.48;11.80;;;12.70;99.90;;;;;;5052812;28;20331;-72
2023/05/25 06:11:56;;;;;;;22.05;10.65;;;12.80;99.90;;;;;;5052571;28;20491;-71
2023/05/25 06:14:22;;;;;;;24.83;10.68;;;12.80;99.90;;;;;;5052603;28;20052;-76
2023/05/25 06:16:47;;;;;;;27.08;10.93;;;12.80;99.90;;;;;;5052677;28;20073;-73
2023/05/25 06:19:13;;;;;;;28.83;10.52;;;12.70;99.90;;;;;;5052323;28;20033;-73
2023/05/25 06:21:38;;;;;;;25.50;10.02;;;12.70;99.90;;;;;;5051021;28;20032;-72
2023/05/25 06:24:05;;;;;;;25.65;9.95;;;12.70;99.90;;;;;;5052734;28;20090;-71
2023/05/25 06:26:31;;;;;;;23.55;10.82;;;12.50;99.90;;;;;;5052326;28;20045;-73
2023/05/25 06:28:56;;;;;;;30.55;11.35;;;12.70;99.90;;;;;;5052404;28;20482;-74
2023/05/25 06:31:22;;;;;;;27.88;12.02;;;12.70;99.90;;;;;;5050835;28;20032;-72
2023/05/25 06:33:48;;;;;;;29.63;11.13;;;12.70;99.90;;;;;;5051265;28;20037;-74
2023/05/25 06:36:15;;;;;;;24.42;11.93;;;12.90;99.90;;;;;;5052329;28;20024;-74
2023/05/25 06:38:41;;;;;;;22.08;10.52;;;12.80;99.90;;;;;;5052256;28;20033;-72
2023/05/25 06:41:08;;;;;;;22.45;10.85;;;12.70;99.90;;;;;;5051783;28;20541;-73
2023/05/25 06:43:34;;;;;;;26.50;10.27;;;12.80;99.90;;;;;;5052054;28;20116;-74
2023/05/25 06:46:00;;;;;;;27.00;11.45;;;13.00;99.90;;;;;;5052448;28;20436;-73
2023/05/25 06:48:25;;;;;;;27.20;9.88;;;13.00;99.90;;;;;;5051786;28;20488;-74
2023/05/25 06:50:51;;;;;;;22.23;10.80;;;12.90;99.90;;;;;;5052618;28;20021;-74
2023/05/25 06:53:17;;;;;;;24.17;9.55;;;13.00;99.90;;;;;;5050452;28;20409;-75
2023/05/25 06:55:43;;;;;;;23.83;10.27;;;13.10;99.90;;;;;;5051798;28;20035;-72
2023/05/25 06:58:08;;;;;;;25.02;10.65;;;13.10;99.90;;;;;;5051774;28;20048;-73
2023/05/25 07:00:34;;;;;;;25.38;10.20;;;13.10;99.90;;;;;;5051459;28;20058;-74
2023/05/25 07:03:00;;;;;;;21.20;8.93;;;13.10;99.90;;;;;;5052019;28;20033;-72
2023/05/25 07:05:25;;;;;;;26.02;9.73;;;13.20;99.90;;;;;;5051455;28;20078;-73
2023/05/25 07:07:51;;;;;;;29.33;10.38;;;13.20;99.90;;;;;;5050658;28;20439;-71
2023/05/25 07:10:17;;;;;;;26.00;10.48;;;13.30;99.90;;;;;;5051373;28;20028;-73
2023/05/25 07:12:43;;;;;;;26.40;10.15;;;13.40;99.90;;;;;;5051389;28;20447;-74
2023/05/25 07:15:09;;;;;;;24.85;11.63;;;13.30;99.90;;;;;;5050618;28;20316;-71
2023/05/25 07:17:35;;;;;;;29.23;11.98;;;13.20;99.90;;;;;;5050928;28;20401;-70
2023/05/25 07:20:01;;;;;;;25.45;11.48;;;13.40;99.90;;;;;;5051111;28;20025;-72
2023/05/25 07:22:27;;;;;;;21.35;11.02;;;13.40;99.90;;;;;;5050162;28;20185;-74
2023/05/25 07:24:53;;;;;;;32.67;12.05;;;13.50;99.90;;;;;;5051278;28;20041;-74
2023/05/25 07:27:18;;;;;;;26.40;10.75;;;13.50;99.90;;;;;;5050582;28;20102;-72
2023/05/25 07:29:44;;;;;;;20.92;10.43;;;13.70;99.90;;;;;;5051353;28;20017;-72
2023/05/25 07:32:10;;;;;;;20.77;10.77;;;13.60;99.90;;;;;;5050915;28;20033;-72
2023/05/25 07:34:36;;;;;;;30.08;10.40;;;13.60;99.90;;;;;;5050736;28;20033;-73
2023/05/25 07:37:01;;;;;;;16.20;9.55;;;13.60;99.90;;;;;;5050803;28;20065;-74
2023/05/25 07:39:27;;;;;;;25.58;10.30;;;13.70;99.90;;;;;;5050628;28;20055;-72
2023/05/25 07:41:53;;;;;;;24.65;9.45;;;13.70;99.90;;;;;;5051224;28;20021;-73
2023/05/25 07:44:19;;;;;;;24.23;9.80;;;13.90;99.90;;;;;;5050807;28;20025;-72
2023/05/25 07:46:44;;;;;;;27.25;10.65;;;13.70;99.90;;;;;;5049489;28;20465;-72
2023/05/25 07:49:14;;;;;;;25.30;10.30;;;13.80;99.90;;;;;;5050430;28;20407;-72
2023/05/25 07:51:46;;;;;;;25.73;10.43;;;13.90;99.90;;;;;;5049362;28;20339;-73
2023/05/25 07:54:12;;;;;;;23.27;10.23;;;14.00;99.90;;;;;;5051271;28;20127;-73
2023/05/25 07:56:38;;;;;;;23.40;9.02;;;14.10;99.80;;;;;;5049367;28;20446;-73
2023/05/25 07:59:05;;;;;;;21.42;9.43;;;14.20;99.50;;;;;;5050072;28;20090;-74
2023/05/25 08:01:30;;;;;;;22.30;9.32;;;14.20;99.50;;;;;;5049444;28;20044;-73
2023/05/25 08:03:56;;;;;;;20.73;8.52;;;14.10;99.50;;;;;;5045306;28;20056;-72
2023/05/25 08:06:22;;;;;;;22.95;9.68;;;14.10;99.70;;;;;;5051378;28;20033;-72
2023/05/25 08:08:48;;;;;;;22.45;8.80;;;14.10;99.70;;;;;;5051723;28;20466;-74
2023/05/25 08:11:15;;;;;;;25.90;8.35;;;13.90;99.90;;;;;;5051439;28;20043;-72
2023/05/25 08:13:42;;;;;;;19.90;8.77;;;14.10;99.70;;;;;;5051260;28;20535;-71
2023/05/25 08:16:08;;;;;;;19.13;8.52;;;14.20;99.50;;;;;;5051213;28;20029;-72
2023/05/25 08:18:34;;;;;;;17.48;7.97;;;14.10;99.30;;;;;;5049712;28;20033;-70
2023/05/25 08:21:00;;;;;;;22.55;8.38;;;14.00;99.80;;;;;;5051574;28;20105;-71
2023/05/25 08:23:25;;;;;;;25.73;12.57;;;14.00;99.60;;;;;;5050949;28;20037;-71
2023/05/25 08:25:52;;;;;;;20.65;8.45;;;14.10;99.90;;;;;;5050918;28;20056;-72
2023/05/25 08:28:18;;;;;;;18.92;7.63;;;14.40;99.70;;;;;;5050704;28;20041;-71
2023/05/25 08:30:45;;;;;;;18.35;7.95;;;14.50;99.40;;;;;;5051070;28;20523;-72
2023/05/25 08:33:11;;;;;;;19.23;7.38;;;14.50;99.30;;;;;;5051513;28;20132;-70
2023/05/25 08:35:39;;;;;;;24.70;8.05;;;14.70;99.00;;;;;;5051076;28;20132;-72
2023/05/25 08:38:05;;;;;;;;;;;14.70;98.80;;;;;;5051582;28;20060;-73
2023/05/25 08:40:31;;;;;;;16.55;6.63;;;14.80;98.70;;;;;;5051037;28;19986;-72
2023/05/25 08:42:57;;;;;;;34.65;7.10;;;14.80;98.70;;;;;;5050848;28;20029;-72
2023/05/25 08:45:22;;;;;;;20.23;7.90;;;14.90;98.50;;;;;;5049866;28;20024;-73
2023/05/25 08:47:52;;;;;;;19.90;7.68;;;15.00;98.40;;;;;;5050889;28;20106;-70
2023/05/25 08:50:18;;;;;;;19.23;7.03;;;15.00;98.40;;;;;;5049570;28;20045;-71
2023/05/25 08:52:48;;;;;;;24.50;7.22;;;15.00;98.30;;;;;;5051045;28;20136;-73
2023/05/25 08:55:15;;;;;;;19.77;7.10;;;15.10;98.40;;;;;;5049664;28;20086;-73
2023/05/25 08:57:58;;;;;;;18.23;7.27;;;15.20;98.30;;;;;;5049428;28;20512;-73
2023/05/25 09:00:34;;;;;;;17.25;6.60;;;15.10;98.20;;;;;;5050720;28;20289;-73
2023/05/25 09:03:20;;;;;;;16.77;7.40;;;15.00;98.20;;;;;;5050404;28;20031;-72
2023/05/25 09:05:46;;;;;;;17.88;7.22;;;15.00;98.20;;;;;;5050979;28;20099;-71
2023/05/25 09:08:12;;;;;;;18.38;7.20;;;15.10;98.40;;;;;;5049358;28;20037;-71
2023/05/25 09:10:39;;;;;;;15.95;6.50;;;15.20;98.50;;;;;;5052881;28;20029;-75
2023/05/25 09:13:05;;;;;;;18.75;6.15;;;15.20;97.80;;;;;;5053643;28;20025;-72
2023/05/25 09:15:31;;;;;;;17.00;5.90;;;15.10;97.90;;;;;;5053481;28;20121;-73
2023/05/25 09:17:57;;;;;;;16.45;6.72;;;15.30;98.10;;;;;;5053691;28;20067;-76
2023/05/25 09:20:24;;;;;;;24.90;7.38;;;15.40;97.90;;;;;;5054518;28;20029;-72
2023/05/25 09:22:51;;;;;;;15.90;6.28;;;15.40;97.70;;;;;;5054371;28;20131;-74
2023/05/25 09:25:19;;;;;;;18.25;6.50;;;15.40;97.70;;;;;;5054536;28;20497;-72
2023/05/25 09:27:45;;;;;;;17.23;7.05;;;15.40;97.80;;;;;;5054138;28;20048;-73
2023/05/25 09:30:11;;;;;;;15.90;5.75;;;15.50;97.70;;;;;;5054944;28;20029;-73
2023/05/25 09:32:37;;;;;;;15.77;6.28;;;15.50;97.50;;;;;;5053963;28;20075;-73
2023/05/25 09:35:08;;;;;;;16.83;6.15;;;15.40;97.50;;;;;;5054476;28;20025;-75
2023/05/25 09:37:35;;;;;;;19.27;6.18;;;15.50;97.40;;;;;;5054079;28;20055;-71
2023/05/25 09:40:02;;;;;;;12.95;4.82;;;15.40;97.30;;;;;;5054279;28;20110;-73
2023/05/25 09:42:28;;;;;;;14.02;5.55;;;15.50;97.20;;;;;;5053930;28;20495;-74
2023/05/25 09:44:54;;;;;;;14.88;5.47;;;15.50;97.20;;;;;;5054372;28;20378;-73
2023/05/25 09:47:20;;;;;;;17.02;5.38;;;15.50;97.40;;;;;;5052310;28;20029;-70
2023/05/25 09:49:48;;;;;;;16.00;5.50;;;15.50;97.10;;;;;;5053762;28;20048;-72
2023/05/25 09:52:14;;;;;;;;;;;15.50;97.20;;;;;;5054639;28;20052;-72
2023/05/25 09:54:44;;;;;;;12.77;5.80;;;15.40;97.20;;;;;;5053776;28;19952;-73
2023/05/25 09:57:10;;;;;;;14.32;5.30;;;15.50;97.20;;;;;;5053949;28;20028;-73
2023/05/25 09:59:36;;;;;;;15.95;6.35;;;15.60;97.00;;;;;;5053461;28;20036;-72
2023/05/25 10:02:01;;;;;;;15.95;5.25;;;15.60;96.80;;;;;;5052085;28;20387;-72
2023/05/25 10:04:27;;;;;;;16.77;5.97;;;15.70;97.20;;;;;;5052034;28;20478;-72
2023/05/25 10:06:55;;;;;;;17.70;6.28;;;15.50;97.10;;;;;;5053212;28;20044;-72
2023/05/25 10:09:22;;;;;;;11.10;5.20;;;15.30;97.20;;;;;;5053619;28;20433;-72
2023/05/25 10:11:50;;;;;;;16.57;5.53;;;15.30;97.60;;;;;;5053818;28;20091;-70
2023/05/25 10:14:22;;;;;;;14.95;5.53;;;15.50;97.30;;;;;;5053323;28;20029;-71
2023/05/25 10:16:51;;;;;;;17.45;6.57;;;15.70;96.80;;;;;;5051948;28;20021;-71
2023/05/25 10:19:26;;;;;;;11.38;4.93;;;15.60;96.50;;;;;;5053196;28;20043;-74
2023/05/25 10:22:18;;;;;;;17.17;5.97;;;15.70;96.70;;;;;;5053190;28;20052;-71
2023/05/25 10:24:55;;;;;;;17.20;4.70;;;15.80;96.40;;;;;;5033201;28;20360;-71
2023/05/25 10:27:35;;;;;;;16.83;5.05;;;15.80;96.30;;;;;;5051821;28;20045;-72
2023/05/25 10:30:01;;;;;;;17.77;6.13;;;15.90;96.60;;;;;;5053698;28;20025;-73
2023/05/25 10:32:28;;;;;;;17.38;5.90;;;15.90;96.60;;;;;;5051392;28;20030;-70
2023/05/25 10:34:56;;;;;;;15.85;5.65;;;15.80;96.50;;;;;;5052974;28;20131;-71
2023/05/25 10:37:24;;;;;;;13.32;5.43;;;15.90;96.80;;;;;;5051742;28;20032;-71
2023/05/25 10:39:52;;;;;;;13.65;5.50;;;16.00;96.30;;;;;;5052896;28;20036;-72
2023/05/25 10:42:18;;;;;;;19.33;5.97;;;16.10;96.30;;;;;;5051850;28;20360;-70
2023/05/25 10:44:44;;;;;;;14.00;4.95;;;16.10;96.10;;;;;;5053206;28;20017;-72
2023/05/25 10:47:11;;;;;;;17.80;4.97;;;16.10;96.20;;;;;;5052587;28;20033;-72
2023/05/25 10:49:57;;;;;;;11.75;5.72;;;16.20;96.10;;;;;;5052678;28;20045;-70
2023/05/25 10:52:30;;;;;;;16.77;5.32;;;16.30;95.80;;;;;;5052648;28;20120;-70
2023/05/25 10:54:58;;;;;;;17.70;5.18;;;16.40;95.80;;;;;;5051834;28;20029;-71
2023/05/25 10:57:24;;;;;;;15.23;5.55;;;16.50;95.70;;;;;;5053671;28;20021;-72
2023/05/25 10:59:53;;;;;;;13.77;5.57;;;16.50;95.90;;;;;;5052864;28;20017;-70
2023/05/25 11:02:22;;;;;;;12.45;4.53;;;16.60;95.90;;;;;;5052425;28;20033;-70
2023/05/25 11:04:49;;;;;;;17.98;4.75;;;16.50;95.90;;;;;;5053511;28;20037;-70
2023/05/25 11:07:17;;;;;;;14.07;4.00;;;16.30;95.70;;;;;;5052357;28;20056;-71
2023/05/25 11:09:54;;;;;;;;;;;16.20;95.70;;;;;;5052750;28;20031;-71
2023/05/25 11:12:21;;;;;;;11.50;4.07;;;16.40;95.80;;;;;;5052319;28;20146;-70
2023/05/25 11:15:14;;;;;;;11.27;3.97;;;16.30;95.70;;;;;;5053356;28;20021;-71
2023/05/25 11:17:58;;;;;;;11.20;3.90;;;16.40;95.50;;;;;;5052614;28;20087;-70
2023/05/25 11:20:27;;;;;;;11.10;4.50;;;16.50;95.60;;;;;;5052511;28;20124;-72
2023/05/25 11:22:55;;;;;;;11.90;4.57;;;16.20;95.30;;;;;;5052369;28;20030;-71
2023/05/25 11:25:37;;;;;;;12.05;4.07;;;16.30;95.90;;;;;;5052143;28;20040;-70
2023/05/25 11:28:07;;;;;;;13.02;3.60;;;16.60;95.60;;;;;;5052558;28;20041;-70
2023/05/25 11:30:34;;;;;;;24.83;9.05;;;16.80;95.20;;;;;;5051620;28;20025;-73
2023/05/25 11:33:03;;;;;;;10.48;4.20;;;16.90;94.90;;;;;;5050678;28;20096;-72
2023/05/25 11:35:32;;;;;;;15.93;4.78;;;16.80;94.50;;;;;;5050872;28;20094;-72
2023/05/25 11:37:59;;;;;;;9.75;4.35;;;16.80;94.50;;;;;;5050550;28;20025;-73
2023/05/25 11:40:28;;;;;;;12.88;3.63;;;16.80;94.70;;;;;;5051775;28;20056;-71
2023/05/25 11:42:55;;;;;;;12.88;4.00;;;16.70;94.40;;;;;;5051775;28;20033;-73
2023/05/25 11:45:22;;;;;;;9.90;3.67;;;16.80;94.60;;;;;;5050510;28;20083;-72
2023/05/25 11:47:47;;;;;;;10.63;3.58;;;16.80;94.80;;;;;;5051163;28;20123;-71
2023/05/25 11:50:16;;;;;;;9.65;3.78;;;16.90;94.80;;;;;;5049827;28;20526;-72
2023/05/25 11:52:42;;;;;;;13.30;3.90;;;17.00;94.80;;;;;;5049553;28;20056;-73
2023/05/25 11:55:13;;;;;;;10.65;4.13;;;16.80;94.50;;;;;;5049419;28;20025;-73
2023/05/25 11:57:39;;;;;;;12.00;5.22;;;16.50;94.70;;;;;;5050410;28;20036;-70
2023/05/25 12:00:10;;;;;;;9.93;2.88;;;16.70;95.00;;;;;;5049630;28;20060;-71
2023/05/25 12:02:40;;;;;;;13.00;3.88;;;16.70;94.70;;;;;;5050237;28;20029;-70
2023/05/25 12:05:06;;;;;;;11.85;3.45;;;16.70;94.90;;;;;;5050430;28;20029;-70
2023/05/25 12:07:33;;;;;;;9.23;3.03;;;16.90;94.80;;;;;;5050191;28;20041;-69
2023/05/25 12:10:14;;;;;;;10.32;3.47;;;16.80;94.30;;;;;;5049212;28;20509;-70
2023/05/25 12:12:44;;;;;;;9.20;3.53;;;17.00;94.50;;;;;;5049046;28;20069;-71
2023/05/25 12:15:12;;;;;;;14.60;3.58;;;17.20;94.60;;;;;;5049414;28;20024;-73
2023/05/25 12:17:41;;;;;;;;;;;17.40;94.20;;;;;;5049840;28;20304;-72
2023/05/25 12:20:09;;;;;;;9.70;3.40;;;17.60;94.10;;;;;;5050603;28;19963;-72
2023/05/25 12:22:37;;;;;;;10.45;3.25;;;17.50;93.80;;;;;;5049193;28;20461;-73
2023/05/25 12:25:09;;;;;;;13.88;3.88;;;17.60;94.00;;;;;;5050146;28;20106;-73
2023/05/25 12:27:35;;;;;;;10.10;3.67;;;17.40;93.60;;;;;;5049970;28;20119;-73
2023/05/25 12:30:01;;;;;;;11.52;4.00;;;17.50;94.00;;;;;;5050716;28;20024;-73
2023/05/25 12:32:27;;;;;;;15.82;4.03;;;17.70;93.80;;;;;;5050152;28;20483;-74
2023/05/25 12:35:02;;;;;;;8.75;4.05;;;17.70;93.80;;;;;;5050722;28;20033;-75